sensor_id;sensor_type;location;lat;lon;timestamp;pressure;altitude;pressure_sealevel;temperature;humidity
64853;BME280;56050;55.558;-4.644;2023-04-30T09:00:57;101698.97;;;13.12;71.90
64853;BME280;56050;55.558;-4.644;2023-04-30T09:03:24;101686.66;;;13.28;71.20
64853;BME280;56050;55.558;-4.644;2023-04-30T09:05:49;101701.00;;;13.36;71.07
64853;BME280;56050;55.558;-4.644;2023-04-30T09:08:18;101686.69;;;13.35;70.80
64853;BME280;56050;55.558;-4.644;2023-04-30T09:11:19;101687.47;;;13.32;71.02
64853;BME280;56050;55.558;-4.644;2023-04-30T09:13:46;101682.44;;;13.31;71.05
64853;BME280;56050;55.558;-4.644;2023-04-30T09:16:11;101689.78;;;13.30;71.14
64853;BME280;56050;55.558;-4.644;2023-04-30T09:18:40;101692.84;;;13.29;71.16
64853;BME280;56050;55.558;-4.644;2023-04-30T09:21:06;101680.50;;;13.28;71.29
64853;BME280;56050;55.558;-4.644;2023-04-30T09:23:33;101682.81;;;13.29;71.53
64853;BME280;56050;55.558;-4.644;2023-04-30T09:25:58;101680.13;;;13.33;71.51
64853;BME280;56050;55.558;-4.644;2023-04-30T09:28:25;101673.56;;;13.37;71.54
64853;BME280;56050;55.558;-4.644;2023-04-30T09:30:56;101677.06;;;13.41;71.51
64853;BME280;56050;55.558;-4.644;2023-04-30T09:33:21;101668.94;;;13.45;71.45
64853;BME280;56050;55.558;-4.644;2023-04-30T09:35:47;101677.84;;;13.49;71.43
64853;BME280;56050;55.558;-4.644;2023-04-30T09:38:28;101673.59;;;13.51;71.55
64853;BME280;56050;55.558;-4.644;2023-04-30T09:40:53;101663.94;;;13.54;71.29
64853;BME280;56050;55.558;-4.644;2023-04-30T09:43:19;101669.75;;;13.56;71.56
64853;BME280;56050;55.558;-4.644;2023-04-30T09:45:46;101670.16;;;13.58;71.38
64853;BME280;56050;55.558;-4.644;2023-04-30T09:48:21;101664.75;;;13.58;71.54
64853;BME280;56050;55.558;-4.644;2023-04-30T09:50:48;101663.56;;;13.59;71.51
64853;BME280;56050;55.558;-4.644;2023-04-30T09:53:13;101660.88;;;13.63;71.61
64853;BME280;56050;55.558;-4.644;2023-04-30T09:55:46;101656.63;;;13.65;71.73
64853;BME280;56050;55.558;-4.644;2023-04-30T09:58:13;101663.59;;;13.70;71.52
64853;BME280;56050;55.558;-4.644;2023-04-30T10:00:39;101657.41;;;13.73;71.76
64853;BME280;56050;55.558;-4.644;2023-04-30T10:03:13;101654.31;;;13.74;71.83
64853;BME280;56050;55.558;-4.644;2023-04-30T10:05:44;101664.00;;;13.75;71.79
64853;BME280;56050;55.558;-4.644;2023-04-30T10:08:32;101656.63;;;13.76;71.72
64853;BME280;56050;55.558;-4.644;2023-04-30T10:11:05;101661.69;;;13.77;71.60
64853;BME280;56050;55.558;-4.644;2023-04-30T10:13:36;101664.75;;;13.76;71.73
64853;BME280;56050;55.558;-4.644;2023-04-30T10:16:14;101658.19;;;13.73;71.62
64853;BME280;56050;55.558;-4.644;2023-04-30T10:18:44;101653.94;;;13.72;71.63
64853;BME280;56050;55.558;-4.644;2023-04-30T10:21:14;101661.66;;;13.74;71.69
64853;BME280;56050;55.558;-4.644;2023-04-30T10:23:43;101655.47;;;13.73;71.85
64853;BME280;56050;55.558;-4.644;2023-04-30T10:26:11;101660.88;;;13.73;71.76
64853;BME280;56050;55.558;-4.644;2023-04-30T10:28:38;101655.09;;;13.75;71.91
64853;BME280;56050;55.558;-4.644;2023-04-30T10:31:06;101654.69;;;13.76;71.79
64853;BME280;56050;55.558;-4.644;2023-04-30T10:33:48;101657.41;;;13.76;71.88
64853;BME280;56050;55.558;-4.644;2023-04-30T10:36:36;101651.22;;;13.79;71.82
64853;BME280;56050;55.558;-4.644;2023-04-30T10:39:04;101651.25;;;13.83;71.91
64853;BME280;56050;55.558;-4.644;2023-04-30T10:41:30;101655.09;;;13.85;71.82
64853;BME280;56050;55.558;-4.644;2023-04-30T10:43:57;101647.38;;;13.87;71.85
64853;BME280;56050;55.558;-4.644;2023-04-30T10:46:25;101644.66;;;13.91;71.99
64853;BME280;56050;55.558;-4.644;2023-04-30T10:48:52;101647.75;;;13.93;71.95
64853;BME280;56050;55.558;-4.644;2023-04-30T10:51:19;101642.72;;;13.95;71.99
64853;BME280;56050;55.558;-4.644;2023-04-30T10:53:48;101645.06;;;13.96;71.91
64853;BME280;56050;55.558;-4.644;2023-04-30T10:56:28;101639.25;;;13.98;71.81
64853;BME280;56050;55.558;-4.644;2023-04-30T10:58:58;101636.16;;;13.99;72.11
64853;BME280;56050;55.558;-4.644;2023-04-30T11:01:23;101628.41;;;14.01;71.88
64853;BME280;56050;55.558;-4.644;2023-04-30T11:04:09;101629.19;;;14.05;72.08
64853;BME280;56050;55.558;-4.644;2023-04-30T11:06:55;101629.19;;;14.09;71.89
64853;BME280;56050;55.558;-4.644;2023-04-30T11:12:15;101622.22;;;14.19;71.90
64853;BME280;56050;55.558;-4.644;2023-04-30T11:14:44;101623.75;;;14.23;71.75
64853;BME280;56050;55.558;-4.644;2023-04-30T11:17:11;101622.59;;;14.28;71.95
64853;BME280;56050;55.558;-4.644;2023-04-30T11:19:48;101612.94;;;14.30;71.99
64853;BME280;56050;55.558;-4.644;2023-04-30T11:22:15;101614.47;;;14.35;71.79
64853;BME280;56050;55.558;-4.644;2023-04-30T11:29:46;101601.69;;;14.46;71.89
64853;BME280;56050;55.558;-4.644;2023-04-30T11:32:12;101594.72;;;14.48;71.76
64853;BME280;56050;55.558;-4.644;2023-04-30T11:34:38;101600.50;;;14.50;71.74
64853;BME280;56050;55.558;-4.644;2023-04-30T11:37:05;101596.63;;;14.55;71.82
64853;BME280;56050;55.558;-4.644;2023-04-30T11:39:34;101598.56;;;14.58;71.99
64853;BME280;56050;55.558;-4.644;2023-04-30T11:42:01;101603.22;;;14.57;71.88
64853;BME280;56050;55.558;-4.644;2023-04-30T11:44:27;101599.31;;;14.58;71.57
64853;BME280;56050;55.558;-4.644;2023-04-30T11:46:53;101593.53;;;14.56;71.60
64853;BME280;56050;55.558;-4.644;2023-04-30T11:49:22;101596.63;;;14.55;71.86
64853;BME280;56050;55.558;-4.644;2023-04-30T11:51:48;101592.38;;;14.54;71.98
64853;BME280;56050;55.558;-4.644;2023-04-30T11:54:14;101592.00;;;14.52;71.81
64853;BME280;56050;55.558;-4.644;2023-04-30T11:56:45;101592.41;;;14.47;72.12
64853;BME280;56050;55.558;-4.644;2023-04-30T11:59:15;101590.84;;;14.39;71.88
64853;BME280;56050;55.558;-4.644;2023-04-30T12:01:43;101585.03;;;14.30;72.21
64853;BME280;56050;55.558;-4.644;2023-04-30T12:04:09;101579.25;;;14.24;72.26
64853;BME280;56050;55.558;-4.644;2023-04-30T12:06:35;101588.16;;;14.21;72.22
64853;BME280;56050;55.558;-4.644;2023-04-30T12:09:02;101579.25;;;14.21;72.43
64853;BME280;56050;55.558;-4.644;2023-04-30T12:11:32;101578.88;;;14.22;72.67
64853;BME280;56050;55.558;-4.644;2023-04-30T12:17:04;101576.91;;;14.30;72.61
64853;BME280;56050;55.558;-4.644;2023-04-30T12:19:29;101580.03;;;14.32;72.45
64853;BME280;56050;55.558;-4.644;2023-04-30T12:21:55;101572.28;;;14.37;72.55
64853;BME280;56050;55.558;-4.644;2023-04-30T12:24:21;101564.50;;;14.46;72.53
64853;BME280;56050;55.558;-4.644;2023-04-30T12:26:52;101578.44;;;14.52;72.33
64853;BME280;56050;55.558;-4.644;2023-04-30T12:29:18;101572.19;;;14.58;72.59
64853;BME280;56050;55.558;-4.644;2023-04-30T12:31:44;101564.06;;;14.62;72.13
64853;BME280;56050;55.558;-4.644;2023-04-30T12:34:11;101561.34;;;14.65;72.34
64853;BME280;56050;55.558;-4.644;2023-04-30T12:36:38;101559.00;;;14.71;72.37
64853;BME280;56050;55.558;-4.644;2023-04-30T12:39:11;101558.59;;;14.76;72.14
64853;BME280;56050;55.558;-4.644;2023-04-30T12:41:41;101563.97;;;14.83;72.05
64853;BME280;56050;55.558;-4.644;2023-04-30T12:44:24;101560.09;;;14.88;72.00
64853;BME280;56050;55.558;-4.644;2023-04-30T12:46:51;101557.38;;;14.91;71.96
64853;BME280;56050;55.558;-4.644;2023-04-30T12:49:26;101558.13;;;14.92;71.92
64853;BME280;56050;55.558;-4.644;2023-04-30T12:52:01;101567.41;;;14.94;71.74
64853;BME280;56050;55.558;-4.644;2023-04-30T12:54:28;101562.38;;;14.96;71.95
64853;BME280;56050;55.558;-4.644;2023-04-30T12:59:28;101553.84;;;14.98;71.78
64853;BME280;56050;55.558;-4.644;2023-04-30T13:01:53;101551.91;;;14.98;71.58
64853;BME280;56050;55.558;-4.644;2023-04-30T13:04:20;101548.41;;;15.01;71.77
64853;BME280;56050;55.558;-4.644;2023-04-30T13:06:48;101551.06;;;15.08;71.89
64853;BME280;56050;55.558;-4.644;2023-04-30T13:09:13;101551.03;;;15.15;71.87
64853;BME280;56050;55.558;-4.644;2023-04-30T13:11:40;101556.81;;;15.21;71.84
64853;BME280;56050;55.558;-4.644;2023-04-30T13:14:05;101545.53;;;15.26;71.81
64853;BME280;56050;55.558;-4.644;2023-04-30T13:16:31;101547.06;;;15.30;71.85
64853;BME280;56050;55.558;-4.644;2023-04-30T13:18:57;101555.94;;;15.38;71.87
64853;BME280;56050;55.558;-4.644;2023-04-30T13:21:22;101553.97;;;15.42;71.85
64853;BME280;56050;55.558;-4.644;2023-04-30T13:23:49;101551.22;;;15.46;71.64
64853;BME280;56050;55.558;-4.644;2023-04-30T13:26:14;101551.63;;;15.48;71.71
64853;BME280;56050;55.558;-4.644;2023-04-30T13:28:40;101549.69;;;15.48;71.43
64853;BME280;56050;55.558;-4.644;2023-04-30T13:31:06;101553.19;;;15.49;71.79
64853;BME280;56050;55.558;-4.644;2023-04-30T13:33:31;101557.06;;;15.48;71.72
64853;BME280;56050;55.558;-4.644;2023-04-30T13:35:56;101553.97;;;15.49;71.77
64853;BME280;56050;55.558;-4.644;2023-04-30T13:38:22;101557.00;;;15.55;71.88
64853;BME280;56050;55.558;-4.644;2023-04-30T13:40:47;101556.53;;;15.63;71.87
64853;BME280;56050;55.558;-4.644;2023-04-30T13:43:13;101556.13;;;15.68;71.68
64853;BME280;56050;55.558;-4.644;2023-04-30T13:45:38;101552.19;;;15.76;71.69
64853;BME280;56050;55.558;-4.644;2023-04-30T13:48:04;101548.63;;;15.83;71.66
64853;BME280;56050;55.558;-4.644;2023-04-30T13:50:29;101544.72;;;15.88;71.60
64853;BME280;56050;55.558;-4.644;2023-04-30T13:52:55;101538.88;;;15.89;71.54
64853;BME280;56050;55.558;-4.644;2023-04-30T13:55:23;101540.41;;;15.90;71.74
64853;BME280;56050;55.558;-4.644;2023-04-30T13:57:49;101534.97;;;15.90;71.83
64853;BME280;56050;55.558;-4.644;2023-04-30T14:00:14;101536.47;;;15.95;71.69
64853;BME280;56050;55.558;-4.644;2023-04-30T14:02:40;101540.28;;;16.04;71.70
64853;BME280;56050;55.558;-4.644;2023-04-30T14:05:06;101544.09;;;16.10;71.79
64853;BME280;56050;55.558;-4.644;2023-04-30T14:07:32;101543.69;;;16.12;71.59
64853;BME280;56050;55.558;-4.644;2023-04-30T14:09:58;101533.97;;;16.14;71.72
64853;BME280;56050;55.558;-4.644;2023-04-30T14:12:23;101539.31;;;16.21;71.65
64853;BME280;56050;55.558;-4.644;2023-04-30T14:14:49;101537.69;;;16.31;71.75
64853;BME280;56050;55.558;-4.644;2023-04-30T14:17:14;101536.78;;;16.41;71.82
64853;BME280;56050;55.558;-4.644;2023-04-30T14:19:40;101537.09;;;16.46;71.85
64853;BME280;56050;55.558;-4.644;2023-04-30T14:22:06;101534.00;;;16.48;71.75
64853;BME280;56050;55.558;-4.644;2023-04-30T14:24:31;101537.50;;;16.49;71.76
64853;BME280;56050;55.558;-4.644;2023-04-30T14:26:56;101529.25;;;16.56;72.10
64853;BME280;56050;55.558;-4.644;2023-04-30T14:29:24;101545.16;;;16.57;72.24
64853;BME280;56050;55.558;-4.644;2023-04-30T14:31:49;101544.16;;;16.40;71.77
64853;BME280;56050;55.558;-4.644;2023-04-30T14:34:15;101541.22;;;16.24;72.09
64853;BME280;56050;55.558;-4.644;2023-04-30T14:36:41;101539.41;;;16.14;72.18
64853;BME280;56050;55.558;-4.644;2023-04-30T14:39:06;101531.31;;;16.07;72.16
64853;BME280;56050;55.558;-4.644;2023-04-30T14:41:34;101519.28;;;16.05;72.31
64853;BME280;56050;55.558;-4.644;2023-04-30T14:44:00;101518.53;;;16.04;72.32
64853;BME280;56050;55.558;-4.644;2023-04-30T14:46:26;101512.00;;;15.98;72.21
64853;BME280;56050;55.558;-4.644;2023-04-30T14:48:51;101508.53;;;15.94;72.39
64853;BME280;56050;55.558;-4.644;2023-04-30T14:51:16;101512.84;;;15.88;72.42
64853;BME280;56050;55.558;-4.644;2023-04-30T14:53:42;101516.81;;;15.80;72.66
64853;BME280;56050;55.558;-4.644;2023-04-30T14:56:07;101518.50;;;15.67;72.48
64853;BME280;56050;55.558;-4.644;2023-04-30T14:58:33;101529.09;;;15.51;72.14
64853;BME280;56050;55.558;-4.644;2023-04-30T15:00:58;101530.38;;;15.32;72.40
64853;BME280;56050;55.558;-4.644;2023-04-30T15:03:24;101522.69;;;15.16;72.62
64853;BME280;56050;55.558;-4.644;2023-04-30T15:05:49;101523.97;;;15.01;72.74
64853;BME280;56050;55.558;-4.644;2023-04-30T15:08:15;101527.50;;;14.95;72.93
64853;BME280;56050;55.558;-4.644;2023-04-30T15:10:41;101524.00;;;14.94;72.93
64853;BME280;56050;55.558;-4.644;2023-04-30T15:13:08;101534.84;;;14.94;72.81
64853;BME280;56050;55.558;-4.644;2023-04-30T15:15:34;101527.84;;;14.97;73.10
64853;BME280;56050;55.558;-4.644;2023-04-30T15:18:01;101532.91;;;14.98;72.85
64853;BME280;56050;55.558;-4.644;2023-04-30T15:20:30;101530.19;;;14.98;73.00
64853;BME280;56050;55.558;-4.644;2023-04-30T15:22:55;101528.25;;;14.99;72.90
64853;BME280;56050;55.558;-4.644;2023-04-30T15:25:21;101535.25;;;14.93;72.60
64853;BME280;56050;55.558;-4.644;2023-04-30T15:27:48;101523.63;;;14.89;72.73
64853;BME280;56050;55.558;-4.644;2023-04-30T15:30:16;101508.56;;;14.88;72.66
64853;BME280;56050;55.558;-4.644;2023-04-30T15:32:41;101511.25;;;14.91;72.83
64853;BME280;56050;55.558;-4.644;2023-04-30T15:35:07;101513.56;;;14.93;72.51
64853;BME280;56050;55.558;-4.644;2023-04-30T15:37:32;101507.34;;;14.92;72.55
64853;BME280;56050;55.558;-4.644;2023-04-30T15:39:59;101510.84;;;14.96;72.86
64853;BME280;56050;55.558;-4.644;2023-04-30T15:42:25;101517.75;;;15.04;72.79
64853;BME280;56050;55.558;-4.644;2023-04-30T15:44:50;101521.19;;;15.12;72.94
64853;BME280;56050;55.558;-4.644;2023-04-30T15:47:16;101521.53;;;15.17;72.67
64853;BME280;56050;55.558;-4.644;2023-04-30T15:49:42;101526.97;;;15.21;72.87
64853;BME280;56050;55.558;-4.644;2023-04-30T15:52:07;101516.13;;;15.17;72.69
64853;BME280;56050;55.558;-4.644;2023-04-30T15:54:34;101524.97;;;15.25;72.85
64853;BME280;56050;55.558;-4.644;2023-04-30T15:56:59;101526.44;;;15.40;73.02
64853;BME280;56050;55.558;-4.644;2023-04-30T15:59:26;101526.41;;;15.47;72.96
64853;BME280;56050;55.558;-4.644;2023-04-30T16:01:51;101522.16;;;15.46;72.81
64853;BME280;56050;55.558;-4.644;2023-04-30T16:04:17;101515.16;;;15.42;72.84
64853;BME280;56050;55.558;-4.644;2023-04-30T16:06:43;101524.09;;;15.42;72.74
64853;BME280;56050;55.558;-4.644;2023-04-30T16:09:08;101532.97;;;15.53;73.09
64853;BME280;56050;55.558;-4.644;2023-04-30T16:11:35;101520.47;;;15.63;72.54
64853;BME280;56050;55.558;-4.644;2023-04-30T16:14:01;101521.56;;;15.69;72.28
64853;BME280;56050;55.558;-4.644;2023-04-30T16:16:26;101523.09;;;15.73;72.41
64853;BME280;56050;55.558;-4.644;2023-04-30T16:18:53;101523.09;;;15.73;72.18
64853;BME280;56050;55.558;-4.644;2023-04-30T16:21:18;101525.06;;;15.69;72.04
64853;BME280;56050;55.558;-4.644;2023-04-30T16:23:44;101522.41;;;15.62;71.93
64853;BME280;56050;55.558;-4.644;2023-04-30T16:26:11;101526.38;;;15.54;72.06
64853;BME280;56050;55.558;-4.644;2023-04-30T16:28:37;101517.50;;;15.43;72.13
64853;BME280;56050;55.558;-4.644;2023-04-30T16:31:02;101522.97;;;15.36;72.30
64853;BME280;56050;55.558;-4.644;2023-04-30T16:33:28;101536.19;;;15.30;72.38
64853;BME280;56050;55.558;-4.644;2023-04-30T16:35:53;101524.63;;;15.23;72.09
64853;BME280;56050;55.558;-4.644;2023-04-30T16:38:19;101527.00;;;15.14;72.22
64853;BME280;56050;55.558;-4.644;2023-04-30T16:40:46;101532.47;;;15.07;72.30
64853;BME280;56050;55.558;-4.644;2023-04-30T16:43:11;101521.63;;;15.00;72.48
64853;BME280;56050;55.558;-4.644;2023-04-30T16:45:37;101526.34;;;14.96;72.45
64853;BME280;56050;55.558;-4.644;2023-04-30T16:48:02;101523.25;;;14.94;72.54
64853;BME280;56050;55.558;-4.644;2023-04-30T16:50:29;101518.63;;;14.91;72.59
64853;BME280;56050;55.558;-4.644;2023-04-30T16:52:55;101511.63;;;14.86;72.51
64853;BME280;56050;55.558;-4.644;2023-04-30T16:55:20;101520.97;;;14.82;72.45
64853;BME280;56050;55.558;-4.644;2023-04-30T16:57:46;101511.69;;;14.76;72.35
64853;BME280;56050;55.558;-4.644;2023-04-30T17:00:12;101517.53;;;14.74;72.48
64853;BME280;56050;55.558;-4.644;2023-04-30T17:02:39;101510.97;;;14.72;72.58
64853;BME280;56050;55.558;-4.644;2023-04-30T17:05:05;101507.47;;;14.71;72.40
64853;BME280;56050;55.558;-4.644;2023-04-30T17:07:31;101506.69;;;14.70;72.68
64853;BME280;56050;55.558;-4.644;2023-04-30T17:09:57;101506.69;;;14.70;72.58
64853;BME280;56050;55.558;-4.644;2023-04-30T17:12:22;101507.84;;;14.69;72.51
64853;BME280;56050;55.558;-4.644;2023-04-30T17:14:48;101502.41;;;14.73;72.66
64853;BME280;56050;55.558;-4.644;2023-04-30T17:17:13;101500.84;;;14.76;72.34
64853;BME280;56050;55.558;-4.644;2023-04-30T17:19:39;101504.72;;;14.78;72.40
64853;BME280;56050;55.558;-4.644;2023-04-30T17:22:04;101506.25;;;14.83;72.06
64853;BME280;56050;55.558;-4.644;2023-04-30T17:24:29;101503.50;;;14.86;72.03
64853;BME280;56050;55.558;-4.644;2023-04-30T17:26:55;101506.22;;;14.86;72.28
64853;BME280;56050;55.558;-4.644;2023-04-30T17:29:22;101515.91;;;14.84;72.21
64853;BME280;56050;55.558;-4.644;2023-04-30T17:31:47;101515.91;;;14.84;72.27
64853;BME280;56050;55.558;-4.644;2023-04-30T17:34:13;101515.97;;;14.80;71.97
64853;BME280;56050;55.558;-4.644;2023-04-30T17:36:38;101524.53;;;14.72;72.32
64853;BME280;56050;55.558;-4.644;2023-04-30T17:39:04;101518.31;;;14.67;72.43
64853;BME280;56050;55.558;-4.644;2023-04-30T17:41:33;101514.47;;;14.65;72.36
64853;BME280;56050;55.558;-4.644;2023-04-30T17:43:58;101520.25;;;14.67;72.25
64853;BME280;56050;55.558;-4.644;2023-04-30T17:46:24;101520.66;;;14.69;72.24
64853;BME280;56050;55.558;-4.644;2023-04-30T17:48:49;101518.69;;;14.69;72.43
64853;BME280;56050;55.558;-4.644;2023-04-30T17:51:14;101525.28;;;14.72;72.47
64853;BME280;56050;55.558;-4.644;2023-04-30T17:53:40;101522.56;;;14.72;72.58
64853;BME280;56050;55.558;-4.644;2023-04-30T17:56:06;101518.69;;;14.73;72.43
64853;BME280;56050;55.558;-4.644;2023-04-30T17:58:32;101522.97;;;14.67;72.34
64853;BME280;56050;55.558;-4.644;2023-04-30T18:00:58;101521.81;;;14.64;72.43
64853;BME280;56050;55.558;-4.644;2023-04-30T18:03:25;101523.38;;;14.62;72.43
64853;BME280;56050;55.558;-4.644;2023-04-30T18:05:51;101521.88;;;14.57;72.35
64853;BME280;56050;55.558;-4.644;2023-04-30T18:08:16;101529.63;;;14.52;72.39
64853;BME280;56050;55.558;-4.644;2023-04-30T18:10:42;101525.00;;;14.45;72.42
64853;BME280;56050;55.558;-4.644;2023-04-30T18:13:08;101528.88;;;14.41;72.53
64853;BME280;56050;55.558;-4.644;2023-04-30T18:15:34;101528.13;;;14.37;72.76
64853;BME280;56050;55.558;-4.644;2023-04-30T18:18:01;101525.44;;;14.33;72.61
64853;BME280;56050;55.558;-4.644;2023-04-30T18:20:27;101520.38;;;14.28;72.52
64853;BME280;56050;55.558;-4.644;2023-04-30T18:22:53;101522.69;;;14.23;72.69
64853;BME280;56050;55.558;-4.644;2023-04-30T18:25:18;101525.81;;;14.21;72.87
64853;BME280;56050;55.558;-4.644;2023-04-30T18:27:44;101522.31;;;14.21;72.72
64853;BME280;56050;55.558;-4.644;2023-04-30T18:30:09;101523.47;;;14.20;72.52
64853;BME280;56050;55.558;-4.644;2023-04-30T18:32:36;101520.41;;;14.18;72.63
64853;BME280;56050;55.558;-4.644;2023-04-30T18:35:02;101524.28;;;14.17;72.74
64853;BME280;56050;55.558;-4.644;2023-04-30T18:37:29;101528.94;;;14.16;72.58
64853;BME280;56050;55.558;-4.644;2023-04-30T18:39:55;101519.25;;;14.15;72.55
64853;BME280;56050;55.558;-4.644;2023-04-30T18:42:21;101527.38;;;14.15;72.58
64853;BME280;56050;55.558;-4.644;2023-04-30T18:44:49;101523.50;;;14.12;72.83
64853;BME280;56050;55.558;-4.644;2023-04-30T18:47:14;101528.16;;;14.12;72.71
64853;BME280;56050;55.558;-4.644;2023-04-30T18:49:41;101527.00;;;14.09;72.63
64853;BME280;56050;55.558;-4.644;2023-04-30T18:52:07;101523.13;;;14.07;72.84
64853;BME280;56050;55.558;-4.644;2023-04-30T18:54:33;101522.34;;;14.06;72.83
64853;BME280;56050;55.558;-4.644;2023-04-30T18:56:58;101521.97;;;14.08;72.78
64853;BME280;56050;55.558;-4.644;2023-04-30T18:59:24;101528.56;;;14.10;72.75
64853;BME280;56050;55.558;-4.644;2023-04-30T19:01:51;101527.00;;;14.13;72.55
64853;BME280;56050;55.558;-4.644;2023-04-30T19:04:17;101521.94;;;14.11;72.43
64853;BME280;56050;55.558;-4.644;2023-04-30T19:06:42;101523.50;;;14.12;72.64
64853;BME280;56050;55.558;-4.644;2023-04-30T19:09:08;101524.28;;;14.13;72.36
64853;BME280;56050;55.558;-4.644;2023-04-30T19:11:34;101526.22;;;14.12;72.35
64853;BME280;56050;55.558;-4.644;2023-04-30T19:14:04;101526.22;;;14.12;72.43
64853;BME280;56050;55.558;-4.644;2023-04-30T19:16:30;101523.88;;;14.14;72.33
64853;BME280;56050;55.558;-4.644;2023-04-30T19:18:56;101524.66;;;14.15;72.50
64853;BME280;56050;55.558;-4.644;2023-04-30T19:21:22;101530.84;;;14.16;72.41
64853;BME280;56050;55.558;-4.644;2023-04-30T19:23:47;101520.81;;;14.12;72.33
64853;BME280;56050;55.558;-4.644;2023-04-30T19:26:13;101523.91;;;14.11;72.26
64853;BME280;56050;55.558;-4.644;2023-04-30T19:28:38;101524.28;;;14.09;72.34
64853;BME280;56050;55.558;-4.644;2023-04-30T19:31:04;101529.34;;;14.07;72.12
64853;BME280;56050;55.558;-4.644;2023-04-30T19:33:30;101533.59;;;14.05;72.26
64853;BME280;56050;55.558;-4.644;2023-04-30T19:36:00;101540.16;;;14.04;72.37
64853;BME280;56050;55.558;-4.644;2023-04-30T19:38:26;101537.47;;;14.04;72.40
64853;BME280;56050;55.558;-4.644;2023-04-30T19:40:53;101535.91;;;14.03;72.42
64853;BME280;56050;55.558;-4.644;2023-04-30T19:43:20;101546.34;;;14.01;72.34
64853;BME280;56050;55.558;-4.644;2023-04-30T19:45:52;101546.34;;;13.97;72.33
64853;BME280;56050;55.558;-4.644;2023-04-30T19:48:19;101545.19;;;13.95;72.36
64853;BME280;56050;55.558;-4.644;2023-04-30T19:50:46;101545.59;;;13.93;72.27
64853;BME280;56050;55.558;-4.644;2023-04-30T19:53:12;101545.97;;;13.92;72.53
64853;BME280;56050;55.558;-4.644;2023-04-30T19:55:38;101551.00;;;13.90;72.47
64853;BME280;56050;55.558;-4.644;2023-04-30T19:58:03;101546.00;;;13.88;72.53
64853;BME280;56050;55.558;-4.644;2023-04-30T20:00:34;101541.72;;;13.87;72.57
64853;BME280;56050;55.558;-4.644;2023-04-30T20:03:00;101549.06;;;13.87;72.58
64853;BME280;56050;55.558;-4.644;2023-04-30T20:05:30;101549.84;;;13.87;72.70
64853;BME280;56050;55.558;-4.644;2023-04-30T20:07:56;101545.59;;;13.86;72.63
64853;BME280;56050;55.558;-4.644;2023-04-30T20:10:22;101557.97;;;13.87;72.76
64853;BME280;56050;55.558;-4.644;2023-04-30T20:12:51;101557.19;;;13.87;72.54
64853;BME280;56050;55.558;-4.644;2023-04-30T20:15:17;101555.28;;;13.87;72.52
64853;BME280;56050;55.558;-4.644;2023-04-30T20:17:43;101561.47;;;13.88;72.78
64853;BME280;56050;55.558;-4.644;2023-04-30T20:20:11;101566.09;;;13.87;72.49
64853;BME280;56050;55.558;-4.644;2023-04-30T20:22:36;101561.47;;;13.88;72.53
64853;BME280;56050;55.558;-4.644;2023-04-30T20:25:03;101561.84;;;13.86;72.44
64853;BME280;56050;55.558;-4.644;2023-04-30T20:27:29;101568.03;;;13.87;72.25
64853;BME280;56050;55.558;-4.644;2023-04-30T20:29:55;101563.03;;;13.85;72.27
64853;BME280;56050;55.558;-4.644;2023-04-30T20:32:20;101569.59;;;13.84;72.38
64853;BME280;56050;55.558;-4.644;2023-04-30T20:34:46;101573.06;;;13.85;72.44
64853;BME280;56050;55.558;-4.644;2023-04-30T20:37:11;101575.78;;;13.85;72.37
64853;BME280;56050;55.558;-4.644;2023-04-30T20:39:37;101571.91;;;13.82;72.38
64853;BME280;56050;55.558;-4.644;2023-04-30T20:42:03;101569.97;;;13.79;72.36
64853;BME280;56050;55.558;-4.644;2023-04-30T20:44:28;101568.41;;;13.78;72.18
64853;BME280;56050;55.558;-4.644;2023-04-30T20:46:54;101571.53;;;13.77;72.32
64853;BME280;56050;55.558;-4.644;2023-04-30T20:49:19;101568.44;;;13.75;72.30
64853;BME280;56050;55.558;-4.644;2023-04-30T20:51:44;101571.16;;;13.75;72.52
64853;BME280;56050;55.558;-4.644;2023-04-30T20:54:10;101574.63;;;13.75;72.41
64853;BME280;56050;55.558;-4.644;2023-04-30T20:56:35;101577.34;;;13.75;72.66
64853;BME280;56050;55.558;-4.644;2023-04-30T20:59:01;101581.59;;;13.76;72.46
64853;BME280;56050;55.558;-4.644;2023-04-30T21:01:29;101578.88;;;13.76;72.34
64853;BME280;56050;55.558;-4.644;2023-04-30T21:03:54;101577.34;;;13.75;72.52
64853;BME280;56050;55.558;-4.644;2023-04-30T21:06:20;101578.88;;;13.76;72.73
64853;BME280;56050;55.558;-4.644;2023-04-30T21:08:46;101573.84;;;13.75;72.49
64853;BME280;56050;55.558;-4.644;2023-04-30T21:11:11;101580.06;;;13.75;72.62
64853;BME280;56050;55.558;-4.644;2023-04-30T21:13:40;101582.75;;;13.75;72.23
64853;BME280;56050;55.558;-4.644;2023-04-30T21:16:06;101584.69;;;13.75;72.25
64853;BME280;56050;55.558;-4.644;2023-04-30T21:18:32;101578.50;;;13.74;72.48
64853;BME280;56050;55.558;-4.644;2023-04-30T21:21:02;101579.25;;;13.71;72.35
64853;BME280;56050;55.558;-4.644;2023-04-30T21:23:28;101574.63;;;13.68;72.33
64853;BME280;56050;55.558;-4.644;2023-04-30T21:25:54;101583.91;;;13.64;72.35
64853;BME280;56050;55.558;-4.644;2023-04-30T21:28:19;101580.03;;;13.58;72.26
64853;BME280;56050;55.558;-4.644;2023-04-30T21:30:45;101575.78;;;13.53;72.25
64853;BME280;56050;55.558;-4.644;2023-04-30T21:33:10;101568.78;;;13.48;72.56
64853;BME280;56050;55.558;-4.644;2023-04-30T21:35:37;101568.41;;;13.46;72.44
64853;BME280;56050;55.558;-4.644;2023-04-30T21:38:03;101577.69;;;13.45;72.67
64853;BME280;56050;55.558;-4.644;2023-04-30T21:40:32;101577.69;;;13.45;72.59
64853;BME280;56050;55.558;-4.644;2023-04-30T21:43:01;101578.84;;;13.48;72.81
64853;BME280;56050;55.558;-4.644;2023-04-30T21:45:26;101578.50;;;13.53;72.70
64853;BME280;56050;55.558;-4.644;2023-04-30T21:47:52;101583.88;;;13.57;72.55
64853;BME280;56050;55.558;-4.644;2023-04-30T21:50:17;101587.75;;;13.59;72.44
64853;BME280;56050;55.558;-4.644;2023-04-30T21:52:43;101588.94;;;13.58;72.29